sensor_id;sensor_type;location;lat;lon;timestamp;P1;durP1;ratioP1;P2;durP2;ratioP2
26654;SDS011;14278;50.784;4.630;2023-03-13T00:00:14;1.97;;;1.33;;
26654;SDS011;14278;50.784;4.630;2023-03-13T00:02:53;4.57;;;1.50;;
26654;SDS011;14278;50.784;4.630;2023-03-13T00:14:41;4.83;;;2.10;;
26654;SDS011;14278;50.784;4.630;2023-03-13T00:17:50;3.13;;;1.40;;
26654;SDS011;14278;50.784;4.630;2023-03-13T00:20:41;6.13;;;1.40;;
26654;SDS011;14278;50.784;4.630;2023-03-13T00:23:22;6.67;;;1.40;;
26654;SDS011;14278;50.784;4.630;2023-03-13T00:25:54;1.30;;;1.17;;
26654;SDS011;14278;50.784;4.630;2023-03-13T00:28:24;1.83;;;1.33;;
26654;SDS011;14278;50.784;4.630;2023-03-13T00:30:58;1.57;;;1.27;;
26654;SDS011;14278;50.784;4.630;2023-03-13T00:33:27;1.97;;;0.90;;
26654;SDS011;14278;50.784;4.630;2023-03-13T00:36:10;7.50;;;1.43;;
26654;SDS011;14278;50.784;4.630;2023-03-13T00:38:37;2.57;;;1.37;;
26654;SDS011;14278;50.784;4.630;2023-03-13T00:41:06;2.03;;;1.20;;
26654;SDS011;14278;50.784;4.630;2023-03-13T00:43:36;5.83;;;1.63;;
26654;SDS011;14278;50.784;4.630;2023-03-13T00:46:03;12.17;;;1.60;;
26654;SDS011;14278;50.784;4.630;2023-03-13T00:48:30;1.83;;;0.73;;
26654;SDS011;14278;50.784;4.630;2023-03-13T00:50:58;2.73;;;1.63;;
26654;SDS011;14278;50.784;4.630;2023-03-13T00:53:26;1.20;;;0.90;;
26654;SDS011;14278;50.784;4.630;2023-03-13T00:55:59;1.20;;;1.10;;
26654;SDS011;14278;50.784;4.630;2023-03-13T00:58:36;2.97;;;1.30;;
26654;SDS011;14278;50.784;4.630;2023-03-13T01:01:17;1.20;;;1.10;;
26654;SDS011;14278;50.784;4.630;2023-03-13T01:03:49;1.10;;;1.00;;
26654;SDS011;14278;50.784;4.630;2023-03-13T01:06:19;1.03;;;0.87;;
26654;SDS011;14278;50.784;4.630;2023-03-13T01:08:50;1.60;;;1.20;;
26654;SDS011;14278;50.784;4.630;2023-03-13T01:11:24;1.57;;;1.10;;
26654;SDS011;14278;50.784;4.630;2023-03-13T01:13:58;1.97;;;1.30;;
26654;SDS011;14278;50.784;4.630;2023-03-13T01:16:27;1.20;;;1.10;;
26654;SDS011;14278;50.784;4.630;2023-03-13T01:18:55;2.93;;;1.73;;
26654;SDS011;14278;50.784;4.630;2023-03-13T01:21:23;2.53;;;1.83;;
26654;SDS011;14278;50.784;4.630;2023-03-13T01:23:50;1.30;;;1.20;;
26654;SDS011;14278;50.784;4.630;2023-03-13T01:26:17;8.47;;;1.67;;
26654;SDS011;14278;50.784;4.630;2023-03-13T01:28:44;2.27;;;1.30;;
26654;SDS011;14278;50.784;4.630;2023-03-13T01:33:37;2.80;;;1.93;;
26654;SDS011;14278;50.784;4.630;2023-03-13T01:36:03;2.10;;;1.87;;
26654;SDS011;14278;50.784;4.630;2023-03-13T01:38:29;1.80;;;1.70;;
26654;SDS011;14278;50.784;4.630;2023-03-13T01:40:55;1.63;;;1.53;;
26654;SDS011;14278;50.784;4.630;2023-03-13T01:43:22;2.33;;;2.03;;
26654;SDS011;14278;50.784;4.630;2023-03-13T01:48:23;2.50;;;1.90;;
26654;SDS011;14278;50.784;4.630;2023-03-13T01:50:54;2.30;;;1.87;;
26654;SDS011;14278;50.784;4.630;2023-03-13T01:53:22;2.53;;;2.33;;
26654;SDS011;14278;50.784;4.630;2023-03-13T01:55:49;3.77;;;2.47;;
26654;SDS011;14278;50.784;4.630;2023-03-13T01:58:17;3.67;;;2.53;;
26654;SDS011;14278;50.784;4.630;2023-03-13T02:00:43;5.10;;;3.10;;
26654;SDS011;14278;50.784;4.630;2023-03-13T02:03:12;3.57;;;2.73;;
26654;SDS011;14278;50.784;4.630;2023-03-13T02:05:41;2.93;;;2.30;;
26654;SDS011;14278;50.784;4.630;2023-03-13T02:08:20;3.23;;;2.50;;
26654;SDS011;14278;50.784;4.630;2023-03-13T02:10:57;3.83;;;2.47;;
26654;SDS011;14278;50.784;4.630;2023-03-13T02:13:42;1.90;;;1.80;;
26654;SDS011;14278;50.784;4.630;2023-03-13T02:16:09;5.30;;;2.33;;
26654;SDS011;14278;50.784;4.630;2023-03-13T02:18:35;2.67;;;2.17;;
26654;SDS011;14278;50.784;4.630;2023-03-13T02:21:21;2.43;;;2.23;;
26654;SDS011;14278;50.784;4.630;2023-03-13T02:24:25;4.20;;;2.67;;
26654;SDS011;14278;50.784;4.630;2023-03-13T02:27:04;4.40;;;2.60;;
26654;SDS011;14278;50.784;4.630;2023-03-13T02:29:31;4.10;;;2.90;;
26654;SDS011;14278;50.784;4.630;2023-03-13T02:31:57;2.37;;;2.17;;
26654;SDS011;14278;50.784;4.630;2023-03-13T02:34:26;2.27;;;2.07;;
26654;SDS011;14278;50.784;4.630;2023-03-13T02:36:56;5.17;;;2.50;;
26654;SDS011;14278;50.784;4.630;2023-03-13T02:39:24;3.13;;;2.43;;
26654;SDS011;14278;50.784;4.630;2023-03-13T02:41:55;3.10;;;2.30;;
26654;SDS011;14278;50.784;4.630;2023-03-13T02:44:22;2.10;;;2.00;;
26654;SDS011;14278;50.784;4.630;2023-03-13T02:46:48;2.97;;;2.70;;
26654;SDS011;14278;50.784;4.630;2023-03-13T02:49:24;4.53;;;3.03;;
26654;SDS011;14278;50.784;4.630;2023-03-13T02:51:52;2.63;;;2.43;;
26654;SDS011;14278;50.784;4.630;2023-03-13T02:54:23;6.43;;;2.70;;
26654;SDS011;14278;50.784;4.630;2023-03-13T02:56:56;2.87;;;2.47;;
26654;SDS011;14278;50.784;4.630;2023-03-13T02:59:25;5.10;;;3.13;;
26654;SDS011;14278;50.784;4.630;2023-03-13T03:01:51;3.30;;;2.50;;
26654;SDS011;14278;50.784;4.630;2023-03-13T03:04:21;4.07;;;3.30;;
26654;SDS011;14278;50.784;4.630;2023-03-13T03:06:48;3.10;;;2.47;;
26654;SDS011;14278;50.784;4.630;2023-03-13T03:09:15;2.53;;;2.33;;
26654;SDS011;14278;50.784;4.630;2023-03-13T03:11:44;2.60;;;2.40;;
26654;SDS011;14278;50.784;4.630;2023-03-13T03:14:11;2.67;;;2.43;;
26654;SDS011;14278;50.784;4.630;2023-03-13T03:16:38;3.40;;;2.33;;
26654;SDS011;14278;50.784;4.630;2023-03-13T03:19:08;6.33;;;2.20;;
26654;SDS011;14278;50.784;4.630;2023-03-13T03:21:35;5.50;;;2.40;;
26654;SDS011;14278;50.784;4.630;2023-03-13T03:24:13;2.47;;;2.27;;
26654;SDS011;14278;50.784;4.630;2023-03-13T03:26:39;3.20;;;2.40;;
26654;SDS011;14278;50.784;4.630;2023-03-13T03:29:05;2.67;;;2.23;;
26654;SDS011;14278;50.784;4.630;2023-03-13T03:31:35;2.37;;;2.13;;
26654;SDS011;14278;50.784;4.630;2023-03-13T03:34:00;4.47;;;2.50;;
26654;SDS011;14278;50.784;4.630;2023-03-13T03:36:26;2.73;;;2.00;;
26654;SDS011;14278;50.784;4.630;2023-03-13T03:38:53;2.40;;;1.77;;
26654;SDS011;14278;50.784;4.630;2023-03-13T03:41:19;2.13;;;1.97;;
26654;SDS011;14278;50.784;4.630;2023-03-13T03:43:48;2.47;;;2.10;;
26654;SDS011;14278;50.784;4.630;2023-03-13T03:46:17;1.33;;;1.23;;
26654;SDS011;14278;50.784;4.630;2023-03-13T03:48:43;1.77;;;1.67;;
26654;SDS011;14278;50.784;4.630;2023-03-13T03:51:11;1.83;;;1.67;;
26654;SDS011;14278;50.784;4.630;2023-03-13T03:53:41;3.37;;;2.20;;
26654;SDS011;14278;50.784;4.630;2023-03-13T03:56:10;2.63;;;1.77;;
26654;SDS011;14278;50.784;4.630;2023-03-13T03:58:36;2.30;;;1.40;;
26654;SDS011;14278;50.784;4.630;2023-03-13T04:01:02;2.87;;;1.97;;
26654;SDS011;14278;50.784;4.630;2023-03-13T04:03:33;1.33;;;1.23;;
26654;SDS011;14278;50.784;4.630;2023-03-13T04:06:00;2.33;;;2.07;;
26654;SDS011;14278;50.784;4.630;2023-03-13T04:08:38;2.40;;;1.53;;
26654;SDS011;14278;50.784;4.630;2023-03-13T04:11:04;1.43;;;1.33;;
26654;SDS011;14278;50.784;4.630;2023-03-13T04:13:29;1.60;;;1.50;;
26654;SDS011;14278;50.784;4.630;2023-03-13T04:16:18;1.10;;;1.07;;
26654;SDS011;14278;50.784;4.630;2023-03-13T04:18:59;1.90;;;1.60;;
26654;SDS011;14278;50.784;4.630;2023-03-13T04:21:35;1.57;;;1.47;;
26654;SDS011;14278;50.784;4.630;2023-03-13T04:24:04;6.00;;;1.83;;
26654;SDS011;14278;50.784;4.630;2023-03-13T04:26:32;2.70;;;1.90;;
26654;SDS011;14278;50.784;4.630;2023-03-13T04:29:15;2.10;;;1.33;;
26654;SDS011;14278;50.784;4.630;2023-03-13T04:32:06;1.63;;;1.30;;
26654;SDS011;14278;50.784;4.630;2023-03-13T04:34:44;1.30;;;1.20;;
26654;SDS011;14278;50.784;4.630;2023-03-13T04:37:44;12.93;;;1.43;;
26654;SDS011;14278;50.784;4.630;2023-03-13T04:40:12;2.17;;;1.70;;
26654;SDS011;14278;50.784;4.630;2023-03-13T04:42:39;2.83;;;1.67;;
26654;SDS011;14278;50.784;4.630;2023-03-13T04:45:11;1.70;;;1.10;;
26654;SDS011;14278;50.784;4.630;2023-03-13T04:47:39;1.30;;;1.20;;
26654;SDS011;14278;50.784;4.630;2023-03-13T04:50:17;1.90;;;1.20;;
26654;SDS011;14278;50.784;4.630;2023-03-13T04:55:24;0.80;;;0.80;;
26654;SDS011;14278;50.784;4.630;2023-03-13T04:57:50;3.83;;;1.67;;
26654;SDS011;14278;50.784;4.630;2023-03-13T05:00:15;1.40;;;1.30;;
26654;SDS011;14278;50.784;4.630;2023-03-13T05:02:41;1.20;;;1.10;;
26654;SDS011;14278;50.784;4.630;2023-03-13T05:05:08;0.90;;;0.90;;
26654;SDS011;14278;50.784;4.630;2023-03-13T05:07:34;1.37;;;1.27;;
26654;SDS011;14278;50.784;4.630;2023-03-13T05:09:59;2.27;;;1.10;;
26654;SDS011;14278;50.784;4.630;2023-03-13T05:12:25;1.67;;;1.10;;
26654;SDS011;14278;50.784;4.630;2023-03-13T05:15:00;4.97;;;1.73;;
26654;SDS011;14278;50.784;4.630;2023-03-13T05:17:29;0.93;;;0.93;;
26654;SDS011;14278;50.784;4.630;2023-03-13T05:19:57;2.47;;;1.77;;
26654;SDS011;14278;50.784;4.630;2023-03-13T05:22:23;1.50;;;1.37;;
26654;SDS011;14278;50.784;4.630;2023-03-13T05:24:49;1.83;;;1.63;;
26654;SDS011;14278;50.784;4.630;2023-03-13T05:27:15;6.30;;;1.43;;
26654;SDS011;14278;50.784;4.630;2023-03-13T05:29:46;5.30;;;1.33;;
26654;SDS011;14278;50.784;4.630;2023-03-13T05:32:28;3.50;;;1.57;;
26654;SDS011;14278;50.784;4.630;2023-03-13T05:35:03;1.40;;;1.00;;
26654;SDS011;14278;50.784;4.630;2023-03-13T05:37:37;7.20;;;1.63;;
26654;SDS011;14278;50.784;4.630;2023-03-13T05:40:06;1.40;;;1.27;;
26654;SDS011;14278;50.784;4.630;2023-03-13T05:42:35;2.77;;;1.60;;
26654;SDS011;14278;50.784;4.630;2023-03-13T05:45:01;1.47;;;1.03;;
26654;SDS011;14278;50.784;4.630;2023-03-13T05:47:35;2.37;;;1.10;;
26654;SDS011;14278;50.784;4.630;2023-03-13T05:50:10;1.67;;;1.20;;
26654;SDS011;14278;50.784;4.630;2023-03-13T05:52:36;4.07;;;3.27;;
26654;SDS011;14278;50.784;4.630;2023-03-13T05:55:11;7.40;;;5.07;;
26654;SDS011;14278;50.784;4.630;2023-03-13T05:57:48;2.03;;;1.40;;
26654;SDS011;14278;50.784;4.630;2023-03-13T06:00:30;2.57;;;1.63;;
26654;SDS011;14278;50.784;4.630;2023-03-13T06:02:59;1.77;;;0.97;;
26654;SDS011;14278;50.784;4.630;2023-03-13T06:05:31;1.90;;;1.20;;
26654;SDS011;14278;50.784;4.630;2023-03-13T06:08:01;7.17;;;2.03;;
26654;SDS011;14278;50.784;4.630;2023-03-13T06:15:56;1.30;;;1.20;;
26654;SDS011;14278;50.784;4.630;2023-03-13T06:18:28;1.93;;;1.13;;
26654;SDS011;14278;50.784;4.630;2023-03-13T06:24:23;2.27;;;1.40;;
26654;SDS011;14278;50.784;4.630;2023-03-13T06:27:08;2.17;;;1.10;;
26654;SDS011;14278;50.784;4.630;2023-03-13T06:29:37;2.30;;;1.00;;
26654;SDS011;14278;50.784;4.630;2023-03-13T06:38:19;9.50;;;1.63;;
26654;SDS011;14278;50.784;4.630;2023-03-13T06:40:47;2.93;;;1.20;;
26654;SDS011;14278;50.784;4.630;2023-03-13T06:43:16;1.20;;;1.10;;
26654;SDS011;14278;50.784;4.630;2023-03-13T06:45:42;2.27;;;1.47;;
26654;SDS011;14278;50.784;4.630;2023-03-13T06:48:17;2.60;;;1.63;;
26654;SDS011;14278;50.784;4.630;2023-03-13T06:50:45;1.30;;;1.20;;
26654;SDS011;14278;50.784;4.630;2023-03-13T06:53:18;1.27;;;1.17;;
26654;SDS011;14278;50.784;4.630;2023-03-13T06:55:45;1.53;;;1.20;;
26654;SDS011;14278;50.784;4.630;2023-03-13T06:58:25;3.97;;;1.23;;
26654;SDS011;14278;50.784;4.630;2023-03-13T07:00:51;1.03;;;1.03;;
26654;SDS011;14278;50.784;4.630;2023-03-13T07:03:20;1.10;;;1.00;;
26654;SDS011;14278;50.784;4.630;2023-03-13T07:05:51;2.23;;;1.33;;
26654;SDS011;14278;50.784;4.630;2023-03-13T07:08:22;1.20;;;1.10;;
26654;SDS011;14278;50.784;4.630;2023-03-13T07:10:53;1.40;;;1.20;;
26654;SDS011;14278;50.784;4.630;2023-03-13T07:13:25;1.30;;;1.00;;
26654;SDS011;14278;50.784;4.630;2023-03-13T07:16:02;1.17;;;1.07;;
26654;SDS011;14278;50.784;4.630;2023-03-13T07:18:35;2.87;;;1.60;;
26654;SDS011;14278;50.784;4.630;2023-03-13T07:21:09;2.20;;;1.13;;
26654;SDS011;14278;50.784;4.630;2023-03-13T07:23:47;1.10;;;1.00;;
26654;SDS011;14278;50.784;4.630;2023-03-13T07:26:20;9.03;;;1.30;;
26654;SDS011;14278;50.784;4.630;2023-03-13T07:28:52;1.70;;;1.20;;
26654;SDS011;14278;50.784;4.630;2023-03-13T07:31:30;2.60;;;1.33;;
26654;SDS011;14278;50.784;4.630;2023-03-13T07:34:19;1.07;;;1.07;;
26654;SDS011;14278;50.784;4.630;2023-03-13T07:36:45;1.97;;;1.40;;
26654;SDS011;14278;50.784;4.630;2023-03-13T07:39:22;1.90;;;1.03;;
26654;SDS011;14278;50.784;4.630;2023-03-13T07:41:53;1.53;;;1.43;;
26654;SDS011;14278;50.784;4.630;2023-03-13T07:44:23;2.40;;;1.63;;
26654;SDS011;14278;50.784;4.630;2023-03-13T07:46:52;1.77;;;1.17;;
26654;SDS011;14278;50.784;4.630;2023-03-13T07:49:34;2.07;;;1.50;;
26654;SDS011;14278;50.784;4.630;2023-03-13T07:52:05;5.83;;;1.77;;
26654;SDS011;14278;50.784;4.630;2023-03-13T07:54:31;3.03;;;1.60;;
26654;SDS011;14278;50.784;4.630;2023-03-13T07:56:59;1.93;;;1.40;;
26654;SDS011;14278;50.784;4.630;2023-03-13T07:59:40;2.03;;;1.37;;
26654;SDS011;14278;50.784;4.630;2023-03-13T08:02:07;5.50;;;1.70;;
26654;SDS011;14278;50.784;4.630;2023-03-13T08:04:36;1.23;;;0.73;;
26654;SDS011;14278;50.784;4.630;2023-03-13T08:07:14;5.23;;;1.40;;
26654;SDS011;14278;50.784;4.630;2023-03-13T08:09:46;1.47;;;1.20;;
26654;SDS011;14278;50.784;4.630;2023-03-13T08:12:15;1.60;;;1.40;;
26654;SDS011;14278;50.784;4.630;2023-03-13T08:14:41;1.30;;;1.20;;
26654;SDS011;14278;50.784;4.630;2023-03-13T08:17:07;2.27;;;1.50;;
26654;SDS011;14278;50.784;4.630;2023-03-13T08:19:35;2.27;;;1.73;;
26654;SDS011;14278;50.784;4.630;2023-03-13T08:22:02;1.90;;;1.43;;
26654;SDS011;14278;50.784;4.630;2023-03-13T08:27:13;2.47;;;1.70;;
26654;SDS011;14278;50.784;4.630;2023-03-13T08:32:58;3.90;;;1.80;;
26654;SDS011;14278;50.784;4.630;2023-03-13T08:35:39;1.27;;;1.17;;
26654;SDS011;14278;50.784;4.630;2023-03-13T08:41:10;4.67;;;1.87;;
26654;SDS011;14278;50.784;4.630;2023-03-13T08:44:33;3.83;;;1.17;;
26654;SDS011;14278;50.784;4.630;2023-03-13T08:51:05;0.90;;;0.90;;
26654;SDS011;14278;50.784;4.630;2023-03-13T08:56:53;0.50;;;0.50;;
26654;SDS011;14278;50.784;4.630;2023-03-13T08:59:22;2.47;;;1.20;;
26654;SDS011;14278;50.784;4.630;2023-03-13T09:02:22;1.73;;;0.90;;
26654;SDS011;14278;50.784;4.630;2023-03-13T09:05:11;2.43;;;0.83;;
26654;SDS011;14278;50.784;4.630;2023-03-13T09:08:36;1.00;;;0.90;;
26654;SDS011;14278;50.784;4.630;2023-03-13T09:18:24;1.37;;;1.07;;
26654;SDS011;14278;50.784;4.630;2023-03-13T09:20:59;0.70;;;0.70;;
26654;SDS011;14278;50.784;4.630;2023-03-13T09:23:28;4.90;;;1.40;;
26654;SDS011;14278;50.784;4.630;2023-03-13T09:26:17;1.07;;;1.00;;
26654;SDS011;14278;50.784;4.630;2023-03-13T09:29:20;2.63;;;1.10;;
26654;SDS011;14278;50.784;4.630;2023-03-13T09:31:51;2.57;;;1.40;;
26654;SDS011;14278;50.784;4.630;2023-03-13T09:34:23;1.57;;;1.43;;
26654;SDS011;14278;50.784;4.630;2023-03-13T09:37:00;1.20;;;1.00;;
26654;SDS011;14278;50.784;4.630;2023-03-13T09:39:33;1.30;;;1.20;;
26654;SDS011;14278;50.784;4.630;2023-03-13T09:44:52;1.47;;;1.07;;
26654;SDS011;14278;50.784;4.630;2023-03-13T09:47:47;1.27;;;1.13;;
26654;SDS011;14278;50.784;4.630;2023-03-13T09:50:42;1.50;;;1.23;;
26654;SDS011;14278;50.784;4.630;2023-03-13T09:53:23;2.87;;;1.10;;
26654;SDS011;14278;50.784;4.630;2023-03-13T09:56:02;1.20;;;1.00;;
26654;SDS011;14278;50.784;4.630;2023-03-13T10:07:44;2.70;;;1.07;;
26654;SDS011;14278;50.784;4.630;2023-03-13T10:16:26;0.87;;;0.87;;
26654;SDS011;14278;50.784;4.630;2023-03-13T10:19:40;1.93;;;0.90;;
26654;SDS011;14278;50.784;4.630;2023-03-13T10:22:19;1.47;;;0.87;;
26654;SDS011;14278;50.784;4.630;2023-03-13T10:27:58;0.70;;;0.70;;
26654;SDS011;14278;50.784;4.630;2023-03-13T10:30:50;0.73;;;0.73;;
26654;SDS011;14278;50.784;4.630;2023-03-13T10:33:27;0.60;;;0.60;;
26654;SDS011;14278;50.784;4.630;2023-03-13T10:38:51;1.27;;;0.80;;
26654;SDS011;14278;50.784;4.630;2023-03-13T10:44:45;0.50;;;0.50;;
26654;SDS011;14278;50.784;4.630;2023-03-13T10:47:17;0.67;;;0.67;;
26654;SDS011;14278;50.784;4.630;2023-03-13T10:50:04;1.00;;;0.90;;
26654;SDS011;14278;50.784;4.630;2023-03-13T10:52:56;1.33;;;0.83;;
26654;SDS011;14278;50.784;4.630;2023-03-13T10:55:32;3.47;;;0.70;;
26654;SDS011;14278;50.784;4.630;2023-03-13T10:58:28;0.83;;;0.63;;
26654;SDS011;14278;50.784;4.630;2023-03-13T11:07:14;0.87;;;0.67;;
26654;SDS011;14278;50.784;4.630;2023-03-13T11:09:56;0.63;;;0.63;;
26654;SDS011;14278;50.784;4.630;2023-03-13T11:12:49;1.40;;;0.90;;
26654;SDS011;14278;50.784;4.630;2023-03-13T11:15:47;2.50;;;0.90;;
26654;SDS011;14278;50.784;4.630;2023-03-13T11:21:00;0.67;;;0.67;;
26654;SDS011;14278;50.784;4.630;2023-03-13T11:23:42;0.47;;;0.47;;
26654;SDS011;14278;50.784;4.630;2023-03-13T11:29:25;1.80;;;0.53;;
26654;SDS011;14278;50.784;4.630;2023-03-13T11:32:09;0.63;;;0.63;;
26654;SDS011;14278;50.784;4.630;2023-03-13T11:35:10;0.50;;;0.50;;
26654;SDS011;14278;50.784;4.630;2023-03-13T11:37:59;0.47;;;0.47;;
26654;SDS011;14278;50.784;4.630;2023-03-13T11:55:26;1.20;;;0.60;;
26654;SDS011;14278;50.784;4.630;2023-03-13T12:02:39;0.90;;;0.83;;
26654;SDS011;14278;50.784;4.630;2023-03-13T12:05:03;0.20;;;0.20;;
26654;SDS011;14278;50.784;4.630;2023-03-13T12:11:00;0.37;;;0.37;;
26654;SDS011;14278;50.784;4.630;2023-03-13T12:14:03;0.63;;;0.63;;
26654;SDS011;14278;50.784;4.630;2023-03-13T12:26:15;0.57;;;0.47;;
26654;SDS011;14278;50.784;4.630;2023-03-13T12:44:58;0.57;;;0.50;;
26654;SDS011;14278;50.784;4.630;2023-03-13T13:00:06;0.40;;;0.40;;
26654;SDS011;14278;50.784;4.630;2023-03-13T13:03:13;0.73;;;0.60;;
26654;SDS011;14278;50.784;4.630;2023-03-13T13:06:24;18.10;;;0.80;;
26654;SDS011;14278;50.784;4.630;2023-03-13T13:09:21;0.53;;;0.53;;
26654;SDS011;14278;50.784;4.630;2023-03-13T13:12:21;0.63;;;0.60;;
26654;SDS011;14278;50.784;4.630;2023-03-13T13:19:57;0.40;;;0.40;;
26654;SDS011;14278;50.784;4.630;2023-03-13T13:30:54;1.70;;;0.60;;
26654;SDS011;14278;50.784;4.630;2023-03-13T13:33:56;1.03;;;0.70;;
26654;SDS011;14278;50.784;4.630;2023-03-13T13:36:39;0.90;;;0.50;;
26654;SDS011;14278;50.784;4.630;2023-03-13T13:45:17;1.43;;;0.63;;
26654;SDS011;14278;50.784;4.630;2023-03-13T13:51:20;0.63;;;0.50;;
26654;SDS011;14278;50.784;4.630;2023-03-13T13:57:28;0.80;;;0.50;;
26654;SDS011;14278;50.784;4.630;2023-03-13T14:00:26;0.77;;;0.70;;
26654;SDS011;14278;50.784;4.630;2023-03-13T14:03:01;2.23;;;0.87;;
26654;SDS011;14278;50.784;4.630;2023-03-13T14:05:55;0.40;;;0.40;;
26654;SDS011;14278;50.784;4.630;2023-03-13T14:19:00;2.23;;;0.63;;
26654;SDS011;14278;50.784;4.630;2023-03-13T14:21:26;0.60;;;0.60;;
26654;SDS011;14278;50.784;4.630;2023-03-13T14:24:11;2.30;;;0.73;;
26654;SDS011;14278;50.784;4.630;2023-03-13T14:27:05;1.43;;;0.80;;
26654;SDS011;14278;50.784;4.630;2023-03-13T14:32:55;1.47;;;0.90;;
26654;SDS011;14278;50.784;4.630;2023-03-13T14:35:34;3.50;;;0.67;;
26654;SDS011;14278;50.784;4.630;2023-03-13T14:38:36;0.87;;;0.87;;
26654;SDS011;14278;50.784;4.630;2023-03-13T14:41:43;0.70;;;0.50;;
26654;SDS011;14278;50.784;4.630;2023-03-13T14:53:38;0.60;;;0.60;;
26654;SDS011;14278;50.784;4.630;2023-03-13T14:59:48;0.80;;;0.50;;
26654;SDS011;14278;50.784;4.630;2023-03-13T15:05:30;1.57;;;0.73;;
26654;SDS011;14278;50.784;4.630;2023-03-13T16:14:41;1.50;;;1.00;;
26654;SDS011;14278;50.784;4.630;2023-03-13T16:20:17;0.63;;;0.60;;
26654;SDS011;14278;50.784;4.630;2023-03-13T16:22:51;2.17;;;1.10;;
26654;SDS011;14278;50.784;4.630;2023-03-13T16:25:30;2.23;;;1.00;;
26654;SDS011;14278;50.784;4.630;2023-03-13T16:36:41;2.60;;;1.13;;
26654;SDS011;14278;50.784;4.630;2023-03-13T16:39:25;0.87;;;0.73;;
26654;SDS011;14278;50.784;4.630;2023-03-13T16:42:18;1.63;;;1.07;;
26654;SDS011;14278;50.784;4.630;2023-03-13T16:44:58;0.30;;;0.30;;
26654;SDS011;14278;50.784;4.630;2023-03-13T16:47:27;0.70;;;0.60;;
26654;SDS011;14278;50.784;4.630;2023-03-13T16:49:54;2.03;;;1.00;;
26654;SDS011;14278;50.784;4.630;2023-03-13T16:52:38;1.87;;;0.80;;
26654;SDS011;14278;50.784;4.630;2023-03-13T16:55:17;1.17;;;0.80;;
26654;SDS011;14278;50.784;4.630;2023-03-13T16:57:47;0.77;;;0.73;;
26654;SDS011;14278;50.784;4.630;2023-03-13T17:03:28;5.33;;;1.63;;
26654;SDS011;14278;50.784;4.630;2023-03-13T17:06:21;0.70;;;0.70;;
26654;SDS011;14278;50.784;4.630;2023-03-13T17:08:50;2.73;;;1.00;;
26654;SDS011;14278;50.784;4.630;2023-03-13T17:14:12;1.23;;;1.00;;
26654;SDS011;14278;50.784;4.630;2023-03-13T17:16:50;0.97;;;0.83;;
26654;SDS011;14278;50.784;4.630;2023-03-13T17:27:13;2.10;;;0.97;;
26654;SDS011;14278;50.784;4.630;2023-03-13T17:29:46;0.73;;;0.73;;
26654;SDS011;14278;50.784;4.630;2023-03-13T17:32:27;4.67;;;1.30;;
26654;SDS011;14278;50.784;4.630;2023-03-13T17:35:05;5.87;;;1.20;;
26654;SDS011;14278;50.784;4.630;2023-03-13T17:37:31;1.30;;;0.90;;
26654;SDS011;14278;50.784;4.630;2023-03-13T17:43:19;2.07;;;1.17;;
26654;SDS011;14278;50.784;4.630;2023-03-13T17:45:45;3.13;;;0.93;;
26654;SDS011;14278;50.784;4.630;2023-03-13T17:48:11;0.80;;;0.80;;
26654;SDS011;14278;50.784;4.630;2023-03-13T17:50:38;1.10;;;1.00;;
26654;SDS011;14278;50.784;4.630;2023-03-13T17:53:03;1.70;;;0.87;;
26654;SDS011;14278;50.784;4.630;2023-03-13T17:55:33;1.43;;;0.90;;
26654;SDS011;14278;50.784;4.630;2023-03-13T17:57:59;8.53;;;4.63;;
26654;SDS011;14278;50.784;4.630;2023-03-13T18:00:26;3.97;;;1.47;;
26654;SDS011;14278;50.784;4.630;2023-03-13T18:02:56;2.53;;;1.27;;
26654;SDS011;14278;50.784;4.630;2023-03-13T18:05:30;1.40;;;1.13;;
26654;SDS011;14278;50.784;4.630;2023-03-13T18:07:56;2.23;;;1.50;;
26654;SDS011;14278;50.784;4.630;2023-03-13T18:10:27;1.93;;;1.20;;
26654;SDS011;14278;50.784;4.630;2023-03-13T18:15:42;7.20;;;1.23;;
26654;SDS011;14278;50.784;4.630;2023-03-13T18:18:27;1.67;;;1.13;;
26654;SDS011;14278;50.784;4.630;2023-03-13T18:21:02;2.40;;;1.27;;
26654;SDS011;14278;50.784;4.630;2023-03-13T18:29:09;1.53;;;0.87;;
26654;SDS011;14278;50.784;4.630;2023-03-13T18:31:57;4.10;;;1.40;;
26654;SDS011;14278;50.784;4.630;2023-03-13T18:34:24;1.67;;;0.80;;
26654;SDS011;14278;50.784;4.630;2023-03-13T18:37:00;4.23;;;1.33;;
26654;SDS011;14278;50.784;4.630;2023-03-13T18:39:37;1.90;;;1.13;;
26654;SDS011;14278;50.784;4.630;2023-03-13T18:42:26;2.00;;;1.37;;
26654;SDS011;14278;50.784;4.630;2023-03-13T18:44:52;2.13;;;0.87;;
26654;SDS011;14278;50.784;4.630;2023-03-13T18:52:57;1.43;;;1.03;;
26654;SDS011;14278;50.784;4.630;2023-03-13T18:55:31;0.83;;;0.77;;
26654;SDS011;14278;50.784;4.630;2023-03-13T19:31:42;1.33;;;1.03;;
26654;SDS011;14278;50.784;4.630;2023-03-13T19:34:08;1.07;;;0.90;;
26654;SDS011;14278;50.784;4.630;2023-03-13T19:36:36;6.33;;;1.17;;
26654;SDS011;14278;50.784;4.630;2023-03-13T19:39:04;1.43;;;0.90;;
26654;SDS011;14278;50.784;4.630;2023-03-13T19:41:39;2.20;;;1.17;;
26654;SDS011;14278;50.784;4.630;2023-03-13T19:44:11;1.20;;;0.90;;
26654;SDS011;14278;50.784;4.630;2023-03-13T19:46:37;1.87;;;0.90;;
26654;SDS011;14278;50.784;4.630;2023-03-13T19:52:02;0.90;;;0.80;;
26654;SDS011;14278;50.784;4.630;2023-03-13T19:54:28;2.40;;;1.23;;
26654;SDS011;14278;50.784;4.630;2023-03-13T19:56:54;2.23;;;1.00;;
26654;SDS011;14278;50.784;4.630;2023-03-13T19:59:24;1.20;;;0.90;;
26654;SDS011;14278;50.784;4.630;2023-03-13T20:02:02;1.83;;;0.80;;
26654;SDS011;14278;50.784;4.630;2023-03-13T20:04:33;1.37;;;0.97;;
26654;SDS011;14278;50.784;4.630;2023-03-13T20:06:59;1.40;;;1.20;;
26654;SDS011;14278;50.784;4.630;2023-03-13T20:09:26;1.57;;;0.93;;
26654;SDS011;14278;50.784;4.630;2023-03-13T20:11:52;2.57;;;0.80;;
26654;SDS011;14278;50.784;4.630;2023-03-13T20:14:23;1.03;;;0.80;;
26654;SDS011;14278;50.784;4.630;2023-03-13T20:16:51;1.00;;;0.90;;
26654;SDS011;14278;50.784;4.630;2023-03-13T20:19:17;2.80;;;1.10;;
26654;SDS011;14278;50.784;4.630;2023-03-13T20:21:44;1.37;;;0.90;;
26654;SDS011;14278;50.784;4.630;2023-03-13T20:24:13;3.70;;;2.20;;
26654;SDS011;14278;50.784;4.630;2023-03-13T20:26:45;9.63;;;3.97;;
26654;SDS011;14278;50.784;4.630;2023-03-13T20:29:11;3.33;;;1.60;;
26654;SDS011;14278;50.784;4.630;2023-03-13T20:31:37;3.23;;;1.80;;
26654;SDS011;14278;50.784;4.630;2023-03-13T20:34:15;3.10;;;1.77;;
26654;SDS011;14278;50.784;4.630;2023-03-13T20:36:44;3.07;;;1.10;;
26654;SDS011;14278;50.784;4.630;2023-03-13T20:39:20;2.30;;;1.17;;
26654;SDS011;14278;50.784;4.630;2023-03-13T20:42:01;1.77;;;0.97;;
26654;SDS011;14278;50.784;4.630;2023-03-13T20:44:34;1.80;;;1.17;;
26654;SDS011;14278;50.784;4.630;2023-03-13T20:47:04;0.97;;;0.90;;
26654;SDS011;14278;50.784;4.630;2023-03-13T20:52:42;1.10;;;1.00;;
26654;SDS011;14278;50.784;4.630;2023-03-13T20:55:08;12.27;;;1.13;;
26654;SDS011;14278;50.784;4.630;2023-03-13T20:57:35;1.67;;;0.97;;
26654;SDS011;14278;50.784;4.630;2023-03-13T21:00:01;1.00;;;0.90;;
26654;SDS011;14278;50.784;4.630;2023-03-13T21:02:29;1.53;;;0.90;;
26654;SDS011;14278;50.784;4.630;2023-03-13T21:04:55;1.23;;;0.90;;
26654;SDS011;14278;50.784;4.630;2023-03-13T21:07:25;2.30;;;1.23;;
26654;SDS011;14278;50.784;4.630;2023-03-13T21:09:56;2.67;;;0.80;;
26654;SDS011;14278;50.784;4.630;2023-03-13T21:12:25;1.33;;;0.90;;
26654;SDS011;14278;50.784;4.630;2023-03-13T21:14:51;1.33;;;1.13;;
26654;SDS011;14278;50.784;4.630;2023-03-13T21:17:22;1.50;;;1.37;;
26654;SDS011;14278;50.784;4.630;2023-03-13T21:19:48;1.20;;;0.80;;
26654;SDS011;14278;50.784;4.630;2023-03-13T21:22:35;0.67;;;0.63;;
26654;SDS011;14278;50.784;4.630;2023-03-13T21:25:06;2.13;;;0.90;;
26654;SDS011;14278;50.784;4.630;2023-03-13T21:27:41;1.60;;;0.73;;
26654;SDS011;14278;50.784;4.630;2023-03-13T21:30:11;0.87;;;0.83;;